Time;durP1;ratioP1;P1;durP2;ratioP2;P2;SDS_P1;SDS_P2;PMS_P1;PMS_P2;Temp;Humidity;BMP_temperature;BMP_pressure;BME280_temperature;BME280_humidity;BME280_pressure;Samples;Min_cycle;Max_cycle;Signal;HPM_P1;HPM_P2
2022/06/10 00:01:40;;;;;;;13.30;3.00;;;;;;;-145.18;100.00;46674.06;4981173;28;20395;-72
2022/06/10 00:04:06;;;;;;;11.53;2.93;;;;;;;-145.18;100.00;46674.06;4990212;28;20092;-72
2022/06/10 00:06:31;;;;;;;18.33;3.07;;;;;;;-145.18;100.00;46677.97;4990515;28;20049;-72
2022/06/10 00:08:57;;;;;;;12.03;3.20;;;;;;;-145.18;100.00;46676.03;4990554;28;20042;-73
2022/06/10 00:11:22;;;;;;;9.43;3.13;;;;;;;-145.18;100.00;46679.94;4990247;28;20038;-73
2022/06/10 00:13:48;;;;;;;15.37;3.10;;;;;;;-145.18;100.00;46677.97;4990696;28;20038;-72
2022/06/10 00:16:17;;;;;;;14.03;3.53;;;;;;;-145.18;100.00;46683.84;4972471;28;20125;-72
2022/06/10 00:18:43;;;;;;;15.23;2.90;;;;;;;-145.18;100.00;46679.94;4990698;28;20042;-72
2022/06/10 00:21:11;;;;;;;15.03;3.60;;;;;;;-145.18;100.00;46679.94;4990343;28;20648;-72
2022/06/10 00:23:37;;;;;;;14.37;4.00;;;;;;;-145.18;100.00;46687.75;4990532;28;20042;-72
2022/06/10 00:26:04;;;;;;;16.70;3.93;;;;;;;-145.18;100.00;46679.94;4990115;28;20438;-73
2022/06/10 00:28:30;;;;;;;12.97;3.40;;;;;;;-145.18;100.00;46685.78;4990335;28;20038;-72
2022/06/10 00:30:56;;;;;;;14.50;3.97;;;;;;;-145.18;100.00;46687.75;4990503;28;20479;-72
2022/06/10 00:33:22;;;;;;;14.57;4.60;;;;;;;-145.18;100.00;46679.94;4993461;28;20453;-72
2022/06/10 00:35:47;;;;;;;20.57;3.50;;;;;;;-145.18;100.00;46677.97;4976454;28;20038;-72
2022/06/10 00:38:13;;;;;;;20.23;4.07;;;;;;;-145.18;100.00;46677.97;4992952;28;20091;-72
2022/06/10 00:40:48;;;;;;;16.33;4.40;;;;;;;-145.18;100.00;46676.03;4976334;28;20042;-72
2022/06/10 00:43:16;;;;;;;16.83;3.92;;;;;;;-145.18;100.00;46681.88;4993004;28;20034;-72
2022/06/10 00:46:12;;;;;;;16.53;4.40;;;;;;;-145.18;100.00;46677.97;4993742;28;20545;-72
2022/06/10 00:48:43;;;;;;;14.38;4.10;;;;;;;-145.18;100.00;46679.94;4993825;28;20092;-72
2022/06/10 00:51:17;;;;;;;15.57;3.97;;;;;;;-145.18;100.00;46679.94;4993136;28;20030;-72
2022/06/10 00:53:44;;;;;;;18.90;5.10;;;;;;;-145.18;100.00;46670.16;4993463;28;20030;-72
2022/06/10 00:56:16;;;;;;;14.27;4.50;;;;;;;-145.18;100.00;46670.16;4993160;28;20096;-72
2022/06/10 00:59:15;;;;;;;15.00;4.37;;;;;;;-145.18;100.00;46674.06;4993574;28;20026;-72
2022/06/10 01:01:40;;;;;;;16.13;4.37;;;;;;;-145.18;100.00;46672.13;4992908;28;20027;-73
2022/06/10 01:04:06;;;;;;;14.77;4.40;;;;;;;-145.18;100.00;46672.13;4992981;28;20062;-72
2022/06/10 01:06:32;;;;;;;18.53;4.97;;;;;;;-145.18;100.00;46672.13;4992870;28;20394;-72
2022/06/10 01:08:59;;;;;;;11.47;4.03;;;;;;;-145.18;100.00;46672.13;4993289;28;20038;-72
2022/06/10 01:11:43;;;;;;;16.77;4.33;;;;;;;-145.18;100.00;46670.16;4992953;28;20451;-72
2022/06/10 01:14:45;;;;;;;18.67;4.63;;;;;;;-145.18;100.00;46674.06;4992931;28;20038;-73
2022/06/10 01:17:29;;;;;;;11.70;4.37;;;;;;;-145.18;100.00;46672.13;4992437;28;20038;-73
2022/06/10 01:19:57;;;;;;;16.47;4.23;;;;;;;-145.18;100.00;46672.13;4992977;28;20391;-72
2022/06/10 01:22:55;;;;;;;13.30;3.93;;;;;;;-145.18;100.00;46670.16;4992450;28;20043;-72
2022/06/10 01:25:48;;;;;;;13.83;3.70;;;;;;;-145.18;100.00;46670.16;4987145;28;20042;-72
2022/06/10 01:28:19;;;;;;;18.30;3.80;;;;;;;-145.18;100.00;46670.16;4992453;28;20040;-72
2022/06/10 01:31:11;;;;;;;11.00;3.40;;;;;;;-145.18;100.00;46666.25;4992824;28;20065;-72
2022/06/10 01:34:02;;;;;;;12.27;3.50;;;;;;;-145.18;100.00;46672.13;4948718;29;20035;-72
2022/06/10 01:36:54;;;;;;;16.73;3.47;;;;;;;-145.18;100.00;46666.25;4953735;29;20324;-72
2022/06/10 01:39:46;;;;;;;13.67;3.53;;;;;;;-145.18;100.00;46670.16;4954074;29;20039;-73
2022/06/10 01:42:27;;;;;;;16.00;3.03;;;;;;;-145.18;100.00;46668.22;4950216;28;20451;-73
2022/06/10 01:44:52;;;;;;;13.97;3.40;;;;;;;-145.18;100.00;46672.13;4953891;29;20043;-72
2022/06/10 01:47:21;;;;;;;12.60;3.53;;;;;;;-145.18;100.00;46674.06;4953241;29;20030;-73
2022/06/10 01:50:01;;;;;;;11.73;2.77;;;;;;;-145.18;100.00;46677.97;4953791;29;20031;-73
2022/06/10 01:52:36;;;;;;;13.33;3.23;;;;;;;-145.18;100.00;46674.06;4953279;29;20381;-72
2022/06/10 01:55:10;;;;;;;20.07;2.60;;;;;;;-145.18;100.00;46677.97;4953415;29;20468;-73
2022/06/10 01:57:50;;;;;;;8.47;2.60;;;;;;;-145.18;100.00;46679.94;4953408;29;20031;-73
2022/06/10 02:03:11;;;;;;;12.97;2.90;;;;;;;-145.18;100.00;46677.97;5145658;23;20054;-71
2022/06/10 02:05:48;;;;;;;9.50;2.20;;;;;;;-145.18;100.00;46679.94;5001408;28;20493;-71
2022/06/10 02:08:22;;;;;;;16.53;2.83;;;;;;;-145.18;100.00;46676.03;4995160;28;20129;-72
2022/06/10 02:10:56;;;;;;;13.77;2.87;;;;;;;-145.18;100.00;46681.88;5004525;28;20065;-71
2022/06/10 02:13:28;;;;;;;10.90;2.23;;;;;;;-145.18;100.00;46685.78;5010131;28;20106;-71
2022/06/10 02:16:00;;;;;;;16.10;3.00;;;;;;;-145.18;100.00;46685.78;5011046;28;20026;-73
2022/06/10 02:18:34;;;;;;;8.33;2.03;;;;;;;-145.18;100.00;46685.78;5011022;28;20116;-72
2022/06/10 02:21:07;;;;;;;9.80;2.17;;;;;;;-145.18;100.00;46687.75;5011159;28;20038;-73
2022/06/10 02:23:37;;;;;;;14.60;2.80;;;;;;;-145.18;100.00;46683.84;5010846;28;20270;-72
2022/06/10 02:26:05;;;;;;;14.43;2.43;;;;;;;-145.18;100.00;46685.78;5010742;28;20810;-71
2022/06/10 02:28:36;;;;;;;12.67;2.43;;;;;;;-145.18;100.00;46677.97;5010865;28;20061;-72
2022/06/10 02:31:15;;;;;;;8.67;2.17;;;;;;;-145.18;100.00;46677.97;5007979;28;20088;-73
2022/06/10 02:33:41;;;;;;;16.13;2.40;;;;;;;-145.18;100.00;46685.78;5010656;28;20038;-72
2022/06/10 02:36:16;;;;;;;11.23;2.40;;;;;;;-145.18;100.00;46687.75;5010387;28;20105;-72
2022/06/10 02:39:08;;;;;;;9.75;2.45;;;;;;;-145.18;100.00;46685.78;5010929;28;20029;-73
2022/06/10 02:41:55;;;;;;;9.17;2.23;;;;;;;-145.18;100.00;46683.84;5011117;28;20061;-74
2022/06/10 02:44:36;;;;;;;9.03;2.47;;;;;;;-145.18;100.00;46681.88;5011450;28;20084;-74
2022/06/10 02:47:08;;;;;;;15.07;2.27;;;;;;;-145.18;100.00;46672.13;5010061;28;20042;-73
2022/06/10 02:49:34;;;;;;;9.80;2.27;;;;;;;-145.18;100.00;46674.06;5011302;28;20113;-74
2022/06/10 02:52:01;;;;;;;13.37;2.63;;;;;;;-145.18;100.00;46670.16;5010211;28;20033;-74
2022/06/10 02:54:34;;;;;;;11.97;2.83;;;;;;;-145.18;100.00;46672.13;5010557;28;20032;-74
2022/06/10 03:03:05;;;;;;;11.10;2.50;;;;;;;-145.18;100.00;46666.25;5009674;28;20073;-75
2022/06/10 03:05:34;;;;;;;18.10;2.93;;;;;;;-145.18;100.00;46662.34;5010757;28;20068;-75
2022/06/10 03:08:28;;;;;;;9.50;2.30;;;;;;;-145.18;100.00;46658.44;5009922;28;20120;-75
2022/06/10 03:11:00;;;;;;;18.67;3.40;;;;;;;-145.18;100.00;46664.31;5010374;28;20113;-74
2022/06/10 03:13:41;;;;;;;10.53;2.30;;;;;;;-145.18;100.00;46658.44;5009804;28;20099;-74
2022/06/10 03:16:40;;;;;;;17.87;2.53;;;;;;;-145.18;100.00;46656.50;5010296;28;20038;-74
2022/06/10 03:19:42;;;;;;;12.33;2.80;;;;;;;-145.18;100.00;46662.34;5009656;28;20042;-74
2022/06/10 03:22:16;;;;;;;11.57;2.07;;;;;;;-145.18;100.00;46660.41;5009457;28;20030;-74
2022/06/10 03:24:55;;;;;;;15.23;3.13;;;;;;;-145.18;100.00;46664.31;5010303;28;20080;-74
2022/06/10 03:27:35;;;;;;;9.63;2.20;;;;;;;-145.18;100.00;46664.31;5009990;28;20034;-74
2022/06/10 03:30:11;;;;;;;14.57;2.87;;;;;;;-145.18;100.00;46670.16;5010235;28;20478;-74
2022/06/10 03:32:56;;;;;;;11.20;2.40;;;;;;;-145.18;100.00;46668.22;5009992;28;20034;-74
2022/06/10 03:35:46;;;;;;;10.10;2.23;;;;;;;-145.18;100.00;46664.31;5010089;28;20034;-75
2022/06/10 03:38:12;;;;;;;16.30;2.80;;;;;;;-145.18;100.00;46670.16;5009569;28;20038;-74
2022/06/10 03:40:38;;;;;;;12.67;2.57;;;;;;;-145.18;100.00;46668.22;5010560;28;20045;-75
2022/06/10 03:43:07;;;;;;;9.43;3.07;;;;;;;-145.18;100.00;46674.06;5009629;28;20026;-75
2022/06/10 03:45:38;;;;;;;9.83;2.27;;;;;;;-145.18;100.00;46666.25;5010390;28;20057;-74
2022/06/10 03:48:04;;;;;;;15.40;2.77;;;;;;;-145.18;100.00;46674.06;5009434;28;20026;-75
2022/06/10 03:50:34;;;;;;;10.27;2.40;;;;;;;-145.18;100.00;46666.25;5010142;28;20036;-72
2022/06/10 03:53:00;;;;;;;12.00;2.50;;;;;;;-145.18;100.00;46666.25;5009526;28;20038;-72
2022/06/10 03:55:25;;;;;;;11.43;2.47;;;;;;;-145.18;100.00;46672.13;5010370;28;20064;-74
2022/06/10 03:57:50;;;;;;;14.47;2.70;;;;;;;-145.18;100.00;46664.31;5009785;28;20113;-72
2022/06/10 04:00:20;;;;;;;7.87;2.57;;;;;;;-145.18;100.00;46664.31;5010426;28;20034;-75
2022/06/10 04:02:46;;;;;;;12.07;2.30;;;;;;;-145.18;100.00;46664.31;5008827;28;20196;-74
2022/06/10 04:05:11;;;;;;;13.63;2.40;;;;;;;-145.18;100.00;46668.22;5009833;28;20541;-74
2022/06/10 04:07:38;;;;;;;15.77;3.30;;;;;;;-145.18;100.00;46664.31;5012322;28;20026;-73
2022/06/10 04:10:05;;;;;;;10.63;2.83;;;;;;;-145.18;100.00;46664.31;5009140;28;20030;-74
2022/06/10 04:12:30;;;;;;;12.17;2.87;;;;;;;-145.18;100.00;46668.22;5010735;28;20026;-73
2022/06/10 04:14:56;;;;;;;16.00;3.30;;;;;;;-145.18;100.00;46668.22;5005477;28;20026;-74
2022/06/10 04:17:21;;;;;;;14.93;2.20;;;;;;;-145.18;100.00;46670.16;5005806;28;20014;-74
2022/06/10 04:19:47;;;;;;;8.20;2.17;;;;;;;-145.18;100.00;46666.25;5006093;28;20411;-73
2022/06/10 04:22:12;;;;;;;17.53;3.07;;;;;;;-145.18;100.00;46666.25;5009375;28;20089;-73
2022/06/10 04:24:37;;;;;;;9.77;2.53;;;;;;;-145.18;100.00;46668.22;5003702;28;20702;-74
2022/06/10 04:27:03;;;;;;;10.97;2.57;;;;;;;-145.18;100.00;46666.25;5006753;28;20486;-74
2022/06/10 04:29:28;;;;;;;12.07;2.33;;;;;;;-145.18;100.00;46668.22;5004752;28;20041;-72
2022/06/10 04:31:54;;;;;;;12.13;2.80;;;;;;;-145.18;100.00;46662.34;5006528;28;20061;-74
2022/06/10 04:34:19;;;;;;;11.43;2.20;;;;;;;-145.18;100.00;46664.31;5011573;28;20112;-74
2022/06/10 04:36:45;;;;;;;12.43;2.67;;;;;;;-145.18;100.00;46666.25;5012615;28;20099;-74
2022/06/10 04:39:11;;;;;;;7.50;2.03;;;;;;;-145.18;100.00;46662.34;5009099;28;20043;-73
2022/06/10 04:41:37;;;;;;;14.17;2.67;;;;;;;-145.18;100.00;46662.34;4998717;28;20073;-73
2022/06/10 04:44:02;;;;;;;11.07;2.50;;;;;;;-145.18;100.00;46668.22;4995473;28;20110;-74
2022/06/10 04:46:38;;;;;;;11.80;2.37;;;;;;;-145.18;100.00;46672.13;4999150;28;20036;-74
2022/06/10 04:49:05;;;;;;;13.07;2.60;;;;;;;-145.18;100.00;46672.13;5003563;28;20061;-74
2022/06/10 04:51:31;;;;;;;13.63;2.50;;;;;;;-145.18;100.00;46664.31;5002564;28;20081;-74
2022/06/10 04:53:56;;;;;;;13.63;3.13;;;;;;;-145.18;100.00;46664.31;5012988;28;20057;-74
2022/06/10 04:56:22;;;;;;;15.43;3.27;;;;;;;-145.18;100.00;46668.22;5032113;28;20465;-74
2022/06/10 04:58:47;;;;;;;12.50;2.37;;;;;;;-145.18;100.00;46672.13;5013642;28;20049;-74
2022/06/10 05:01:12;;;;;;;13.10;2.67;;;;;;;-145.18;100.00;46668.22;5008287;28;20050;-74
2022/06/10 05:03:38;;;;;;;14.93;2.57;;;;;;;-145.18;100.00;46672.13;5002047;28;20060;-74
2022/06/10 05:06:04;;;;;;;16.90;2.57;;;;;;;-145.18;100.00;46670.16;4990557;28;20511;-74
2022/06/10 05:08:30;;;;;;;12.93;2.60;;;;;;;-145.18;100.00;46674.06;4991816;28;20044;-73
2022/06/10 05:10:56;;;;;;;11.27;3.03;;;;;;;-145.18;100.00;46670.16;4992187;28;20038;-74
2022/06/10 05:13:21;;;;;;;12.90;2.23;;;;;;;-145.18;100.00;46672.13;4992911;28;20081;-74
2022/06/10 05:15:47;;;;;;;19.67;2.43;;;;;;;-145.18;100.00;46672.13;5003660;28;20470;-74
2022/06/10 05:18:15;;;;;;;10.50;2.27;;;;;;;-145.18;100.00;46672.13;4999762;28;20038;-74
2022/06/10 05:20:42;;;;;;;10.67;2.27;;;;;;;-145.18;100.00;46683.84;5008936;28;20034;-74
2022/06/10 05:23:10;;;;;;;7.83;2.03;;;;;;;-145.18;100.00;46672.13;5022337;28;20025;-74
2022/06/10 05:25:36;;;;;;;10.80;2.37;;;;;;;-145.18;100.00;46676.03;5031513;28;20112;-74
2022/06/10 05:28:02;;;;;;;11.87;2.40;;;;;;;-145.18;100.00;46681.88;5013924;28;20063;-74
2022/06/10 05:30:30;;;;;;;9.13;2.40;;;;;;;-145.18;100.00;46676.03;5032062;28;20081;-74
2022/06/10 05:32:57;;;;;;;13.87;2.50;;;;;;;-145.18;100.00;46683.84;5031436;28;20037;-74
2022/06/10 05:35:22;;;;;;;11.23;2.17;;;;;;;-145.18;100.00;46674.06;5031594;28;20561;-74
2022/06/10 05:37:49;;;;;;;11.43;2.43;;;;;;;-145.18;100.00;46677.97;5031332;28;20044;-74
2022/06/10 05:40:15;;;;;;;14.17;2.43;;;;;;;-145.18;100.00;46676.03;5031692;28;20091;-74
2022/06/10 05:42:41;;;;;;;11.93;2.23;;;;;;;-145.18;100.00;46672.13;5024932;28;20069;-74
2022/06/10 05:45:07;;;;;;;10.17;2.23;;;;;;;-145.18;100.00;46679.94;5011470;28;20478;-74
2022/06/10 05:47:34;;;;;;;13.53;2.30;;;;;;;-145.18;100.00;46676.03;5011244;28;20246;-74
2022/06/10 05:50:05;;;;;;;15.47;2.67;;;;;;;-145.18;100.00;46676.03;5010547;28;20061;-74
2022/06/10 05:52:31;;;;;;;10.07;2.20;;;;;;;-145.18;100.00;46681.88;5004298;28;20031;-74
2022/06/10 05:55:00;;;;;;;15.23;2.50;;;;;;;-145.18;100.00;46683.84;5008091;28;20080;-74
2022/06/10 05:57:27;;;;;;;13.37;2.63;;;;;;;-145.18;100.00;46685.78;5010830;28;20053;-74
2022/06/10 05:59:53;;;;;;;16.43;2.83;;;;;;;-145.18;100.00;46676.03;5007446;28;20033;-74
2022/06/10 06:02:21;;;;;;;9.30;1.97;;;;;;;-145.18;100.00;46681.88;5010763;28;20054;-75
2022/06/10 06:04:47;;;;;;;10.60;2.50;;;;;;;-145.18;100.00;46679.94;5011101;28;20033;-74
2022/06/10 06:07:19;;;;;;;21.87;2.70;;;;;;;-145.18;100.00;46681.88;5010686;28;20049;-74
2022/06/10 06:09:45;;;;;;;12.73;2.60;;;;;;;-145.18;100.00;46687.75;4992578;28;20061;-74
2022/06/10 06:12:10;;;;;;;13.10;2.70;;;;;;;-145.18;100.00;46683.84;5009918;28;20052;-74
2022/06/10 06:14:36;;;;;;;14.67;2.70;;;;;;;-145.18;100.00;46681.88;5009900;28;20029;-74
2022/06/10 06:17:04;;;;;;;11.23;2.70;;;;;;;-145.18;100.00;46681.88;5009518;28;20045;-74
2022/06/10 06:19:32;;;;;;;21.20;2.97;;;;;;;-145.18;100.00;46679.94;5010643;28;20113;-74
2022/06/10 06:21:57;;;;;;;12.70;2.60;;;;;;;-145.18;100.00;46681.88;5010279;28;20037;-74
2022/06/10 06:24:24;;;;;;;14.63;3.17;;;;;;;-145.18;100.00;46677.97;5010606;28;20029;-74
2022/06/10 06:26:49;;;;;;;15.10;3.03;;;;;;;-145.18;100.00;46685.78;5010858;28;20029;-74
2022/06/10 06:29:15;;;;;;;15.97;3.00;;;;;;;-145.18;100.00;46683.84;5009422;28;20041;-74
2022/06/10 06:31:40;;;;;;;11.10;3.03;;;;;;;-145.18;100.00;46683.84;5010873;28;20551;-74
2022/06/10 06:34:06;;;;;;;14.97;3.90;;;;;;;-145.18;100.00;46687.75;5009875;28;20038;-74
2022/06/10 06:36:39;;;;;;;16.87;2.80;;;;;;;-145.18;100.00;46687.75;5010910;28;20032;-74
2022/06/10 06:39:05;;;;;;;15.80;3.17;;;;;;;-145.18;100.00;46691.66;5010150;28;20029;-74
2022/06/10 06:41:30;;;;;;;19.30;3.90;;;;;;;-145.18;100.00;46691.66;5010814;28;20117;-74
2022/06/10 06:43:56;;;;;;;11.63;3.27;;;;;;;-145.18;100.00;46689.69;5010234;28;20113;-74
2022/06/10 06:46:21;;;;;;;14.80;3.53;;;;;;;-145.18;100.00;46685.78;5010594;28;20076;-74
2022/06/10 06:48:47;;;;;;;10.93;3.10;;;;;;;-145.18;100.00;46683.84;5010397;28;20109;-74
2022/06/10 06:51:13;;;;;;;9.83;3.20;;;;;;;-145.18;100.00;46687.75;5010599;28;20432;-74
2022/06/10 06:53:38;;;;;;;12.80;3.30;;;;;;;-145.18;100.00;46679.94;5010166;28;20061;-74
2022/06/10 06:56:05;;;;;;;15.43;3.80;;;;;;;-145.18;100.00;46685.78;5010363;28;20030;-74
2022/06/10 06:58:31;;;;;;;10.00;2.90;;;;;;;-145.18;100.00;46681.88;5009991;28;20516;-74
2022/06/10 07:00:56;;;;;;;12.93;3.10;;;;;;;-145.18;100.00;46687.75;5006782;28;20113;-74
2022/06/10 07:03:22;;;;;;;13.23;3.30;;;;;;;-145.18;100.00;46681.88;4990205;28;20050;-74
2022/06/10 07:05:48;;;;;;;10.27;2.63;;;;;;;-145.18;100.00;46681.88;4991104;28;20045;-74
2022/06/10 07:08:13;;;;;;;14.73;3.13;;;;;;;-145.18;100.00;46679.94;4990408;28;20395;-74
2022/06/10 07:10:39;;;;;;;10.43;2.80;;;;;;;-145.18;100.00;46683.84;4991176;28;20044;-74
2022/06/10 07:13:05;;;;;;;7.77;2.50;;;;;;;-145.18;100.00;46681.88;4989967;28;20478;-74
2022/06/10 07:15:30;;;;;;;11.97;2.70;;;;;;;-145.18;100.00;46687.75;4991047;28;20064;-74
2022/06/10 07:17:57;;;;;;;13.53;2.83;;;;;;;-145.18;100.00;46683.84;4990483;28;20383;-74
2022/06/10 07:20:30;;;;;;;11.67;2.47;;;;;;;-145.18;100.00;46679.94;4996363;28;20088;-74
2022/06/10 07:22:57;;;;;;;17.70;3.50;;;;;;;-145.18;100.00;46664.31;5010473;28;20053;-74
2022/06/10 07:25:22;;;;;;;8.27;2.23;;;;;;;-145.18;100.00;46656.50;5010670;28;20482;-74
2022/06/10 07:27:48;;;;;;;17.77;2.30;;;;;;;-145.18;100.00;46631.09;5010284;28;20048;-74
2022/06/10 07:30:17;;;;;;;14.90;2.73;;;;;;;-145.18;100.00;46599.84;5010148;28;20068;-75
2022/06/10 07:32:44;;;;;;;9.53;2.03;;;;;;;-145.18;100.00;46617.41;5010175;28;20100;-74
2022/06/10 07:35:11;;;;;;;11.80;2.57;;;;;;;-145.18;100.00;46578.34;5010212;28;20057;-74
2022/06/10 07:37:36;;;;;;;9.63;2.07;;;;;;;-145.18;100.00;46586.16;5010844;28;20389;-74
2022/06/10 07:40:03;;;;;;;10.80;2.40;;;;;;;-145.18;100.00;46576.41;5010266;28;20030;-74
2022/06/10 07:42:29;;;;;;;8.87;2.20;;;;;;;-145.18;100.00;46558.81;5014461;28;20177;-74
2022/06/10 07:44:54;;;;;;;9.53;2.50;;;;;;;-145.18;100.00;46554.91;5014271;28;20121;-74
2022/06/10 07:47:19;;;;;;;8.83;2.43;;;;;;;-145.18;100.00;46549.06;4996955;28;20041;-74
2022/06/10 07:49:45;;;;;;;8.27;2.20;;;;;;;-145.18;100.00;46551.00;5014204;28;20532;-74
2022/06/10 07:52:10;;;;;;;10.43;2.50;;;;;;;-145.18;100.00;46551.00;5013921;28;20057;-74
2022/06/10 07:54:36;;;;;;;17.07;3.10;;;;;;;-145.18;100.00;46562.72;5014284;28;20053;-74
2022/06/10 07:57:03;;;;;;;14.87;2.90;;;;;;;-145.18;100.00;46554.91;5013979;28;20034;-74
2022/06/10 07:59:30;;;;;;;9.83;2.23;;;;;;;-145.18;100.00;46554.91;5013986;28;20410;-74
2022/06/10 08:01:55;;;;;;;9.60;2.00;;;;;;;-145.18;100.00;46558.81;5014129;28;20386;-73
2022/06/10 08:04:21;;;;;;;9.87;2.80;;;;;;;-145.18;100.00;46558.81;5013786;28;20034;-74
2022/06/10 08:06:47;;;;;;;9.53;2.43;;;;;;;-145.18;100.00;46562.72;5014102;28;20072;-74
2022/06/10 08:09:16;;;;;;;9.63;2.80;;;;;;;-145.18;100.00;46562.72;5013465;28;20499;-74
2022/06/10 08:11:42;;;;;;;13.23;2.57;;;;;;;-145.18;100.00;46556.88;5014370;28;20042;-74
2022/06/10 08:14:07;;;;;;;14.17;2.83;;;;;;;-145.18;100.00;46556.88;5013434;28;20037;-73
2022/06/10 08:16:36;;;;;;;10.97;2.60;;;;;;;-145.18;100.00;46564.69;5014139;28;20056;-73
2022/06/10 08:19:02;;;;;;;12.17;2.43;;;;;;;-145.18;100.00;46562.72;5012965;28;20030;-73
2022/06/10 08:24:11;;;;;;;10.87;2.53;;;;;;;-145.18;100.00;46551.00;4998844;28;20505;-73
2022/06/10 08:26:37;;;;;;;16.40;4.07;;;;;;;-145.18;100.00;46562.72;5013837;28;20022;-73
2022/06/10 08:29:03;;;;;;;17.00;3.00;;;;;;;-145.18;100.00;46568.59;5013076;28;20033;-73
2022/06/10 08:31:29;;;;;;;11.63;2.50;;;;;;;-145.18;100.00;46572.50;5013789;28;20470;-73
2022/06/10 08:33:55;;;;;;;13.93;2.97;;;;;;;-145.18;100.00;46566.63;5013271;28;20033;-73
2022/06/10 08:36:20;;;;;;;13.93;4.00;;;;;;;-145.18;100.00;46576.41;5013446;28;20217;-73
2022/06/10 08:38:45;;;;;;;8.97;2.90;;;;;;;-145.18;100.00;46566.63;5012988;28;20495;-73
2022/06/10 08:41:24;;;;;;;11.33;2.57;;;;;;;-145.18;100.00;46572.50;5013355;28;20041;-73
2022/06/10 08:44:12;;;;;;;11.00;3.10;;;;;;;-145.18;100.00;46562.72;5013013;28;20017;-73
2022/06/10 08:47:05;;;;;;;12.70;3.10;;;;;;;-145.18;100.00;46568.59;5013600;28;20080;-73
2022/06/10 08:49:48;;;;;;;12.27;3.20;;;;;;;-145.18;100.00;46576.41;5012913;28;20036;-73
2022/06/10 08:52:31;;;;;;;10.20;3.07;;;;;;;-145.18;100.00;46578.34;5012222;28;20057;-73
2022/06/10 08:55:13;;;;;;;11.83;2.80;;;;;;;-145.18;100.00;46558.81;5001235;28;20129;-73
2022/06/10 08:57:43;;;;;;;14.87;3.10;;;;;;;-145.18;100.00;46580.31;5012329;28;20533;-72
2022/06/10 09:00:26;;;;;;;9.03;2.73;;;;;;;-145.18;100.00;46578.34;5011947;28;20022;-73
2022/06/10 09:03:16;;;;;;;11.90;2.17;;;;;;;-145.18;100.00;46576.41;4992883;28;20049;-73
2022/06/10 09:05:50;;;;;;;15.10;2.70;;;;;;;-145.18;100.00;46582.25;4993390;28;20104;-73
2022/06/10 09:08:19;;;;;;;7.23;2.47;;;;;;;-145.18;100.00;46582.25;5008447;28;20167;-73
2022/06/10 09:10:54;;;;;;;10.53;2.83;;;;;;;-145.18;100.00;46586.16;5012702;28;20037;-73
2022/06/10 09:13:40;;;;;;;11.95;3.00;;;;;;;-145.18;100.00;46578.34;5012479;28;20088;-73
2022/06/10 09:16:23;;;;;;;10.50;3.65;;;;;;;-145.18;100.00;46564.69;5012615;28;20033;-73
2022/06/10 09:19:10;;;;;;;9.40;3.20;;;;;;;-145.18;100.00;46586.16;5011092;28;20114;-73
2022/06/10 09:22:08;;;;;;;11.83;3.30;;;;;;;-145.18;100.00;46562.72;4993129;28;20047;-73
2022/06/10 09:25:06;;;;;;;12.10;3.13;;;;;;;-145.18;100.00;46576.41;5002531;28;20049;-73
2022/06/10 09:27:34;;;;;;;8.83;3.30;;;;;;;-145.18;100.00;46574.44;4993234;28;20043;-72
2022/06/10 09:30:03;;;;;;;9.97;2.73;;;;;;;-145.18;100.00;46562.72;4995565;28;20026;-73
2022/06/10 09:32:50;;;;;;;12.23;3.03;;;;;;;-145.18;100.00;46554.91;5012378;28;20030;-73
2022/06/10 09:35:51;;;;;;;10.23;3.00;;;;;;;-145.18;100.00;46576.41;5011440;28;20509;-73
2022/06/10 09:38:22;;;;;;;11.40;2.70;;;;;;;-145.18;100.00;46590.06;4990787;28;20027;-73
2022/06/10 09:41:18;;;;;;;9.80;2.50;;;;;;;-145.18;100.00;46578.34;5001188;28;20022;-73
2022/06/10 09:44:25;;;;;;;9.57;2.55;;;;;;;-145.18;100.00;46580.31;5003279;28;20076;-73
2022/06/10 09:47:17;;;;;;;7.03;3.10;;;;;;;-145.18;100.00;46558.81;4995488;28;20039;-73
2022/06/10 09:50:00;;;;;;;6.67;2.63;;;;;;;-145.18;100.00;46580.31;5002769;28;20034;-73
2022/06/10 09:52:41;;;;;;;10.93;2.67;;;;;;;-145.18;100.00;46580.31;4997285;28;20034;-73
2022/06/10 09:55:09;;;;;;;7.50;2.83;;;;;;;-145.18;100.00;46593.97;5003734;28;20022;-73
2022/06/10 09:57:52;;;;;;;11.10;3.37;;;;;;;-145.18;100.00;46590.06;5011639;28;20037;-73
2022/06/10 10:00:24;;;;;;;12.10;2.70;;;;;;;-145.18;100.00;46605.69;4991767;28;20096;-73
2022/06/10 10:02:50;;;;;;;9.17;2.97;;;;;;;-145.18;100.00;46568.59;4992188;28;20057;-73
2022/06/10 10:05:50;;;;;;;10.30;2.60;;;;;;;-145.18;100.00;46568.59;4973326;28;20038;-73
2022/06/10 10:08:37;;;;;;;9.97;2.00;;;;;;;-145.18;100.00;46547.09;4970535;28;20042;-73
2022/06/10 10:11:13;;;;;;;8.37;2.50;;;;;;;-145.18;100.00;46578.34;4991818;28;20068;-73
2022/06/10 10:14:04;;;;;;;4.77;1.80;;;;;;;-145.18;100.00;46560.78;4991851;28;20113;-73
2022/06/10 10:16:48;;;;;;;7.03;2.20;;;;;;;-145.18;100.00;46611.56;4992094;28;20042;-73
2022/06/10 10:19:29;;;;;;;7.67;2.10;;;;;;;-145.18;100.00;46586.16;4990374;28;20510;-73
2022/06/10 10:22:06;;;;;;;7.30;2.10;;;;;;;-145.18;100.00;46566.63;4993710;28;20037;-74
2022/06/10 10:24:39;;;;;;;7.27;2.13;;;;;;;-145.18;100.00;46578.34;4996582;28;20083;-73
2022/06/10 10:27:19;;;;;;;8.77;2.10;;;;;;;-145.18;100.00;46578.34;5010863;28;20026;-74
2022/06/10 10:29:51;;;;;;;5.30;2.07;;;;;;;-145.18;100.00;46588.13;5011062;28;20030;-73
2022/06/10 10:32:24;;;;;;;4.83;2.20;;;;;;;-145.18;100.00;46611.56;5005000;28;20045;-73
2022/06/10 10:34:56;;;;;;;5.17;2.17;;;;;;;-145.18;100.00;46629.13;4949535;28;20497;-73
2022/06/10 10:37:29;;;;;;;9.30;2.03;;;;;;;-145.18;100.00;46609.59;4991290;28;20034;-73
2022/06/10 10:40:06;;;;;;;9.83;3.33;;;;;;;-145.18;100.00;46613.50;4990711;28;20029;-73
2022/06/10 10:42:37;;;;;;;7.43;2.67;;;;;;;-145.18;100.00;46615.47;4991234;28;20088;-73
2022/06/10 10:45:07;;;;;;;7.77;2.20;;;;;;;-145.18;100.00;46613.50;4990493;28;20033;-74
2022/06/10 10:47:35;;;;;;;9.20;2.40;;;;;;;-145.18;100.00;46560.78;4990972;28;20048;-73
2022/06/10 10:50:01;;;;;;;9.73;2.87;;;;;;;-145.18;100.00;46562.72;4990468;28;20045;-74
2022/06/10 10:52:32;;;;;;;7.77;2.63;;;;;;;-145.18;100.00;46625.22;4990294;28;20414;-73
2022/06/10 10:55:06;;;;;;;8.33;2.93;;;;;;;-145.18;100.00;46560.78;4990196;28;20692;-73
2022/06/10 10:57:35;;;;;;;9.57;2.43;;;;;;;-145.18;100.00;46627.19;4990362;28;20472;-74
2022/06/10 11:00:10;;;;;;;5.33;2.30;;;;;;;-145.18;100.00;46797.13;4989547;28;20065;-73
2022/06/10 11:02:39;;;;;;;11.00;2.50;;;;;;;-145.18;100.00;46648.69;4990427;28;20525;-73
2022/06/10 11:05:23;;;;;;;6.53;2.37;;;;;;;-145.18;100.00;46572.50;4989985;28;20169;-73
2022/06/10 11:08:21;;;;;;;5.67;1.97;;;;;;;-145.18;100.00;46611.56;4990281;28;20705;-73
2022/06/10 11:10:55;;;;;;;11.67;3.47;;;;;;;-145.18;100.00;46928.00;4997157;28;20045;-73
2022/06/10 11:13:34;;;;;;;5.60;2.03;;;;;;;-145.18;100.00;47023.72;5001078;28;20041;-73
2022/06/10 11:16:31;;;;;;;9.90;2.70;;;;;;;-145.18;100.00;47156.56;5000810;28;20021;-74
2022/06/10 11:19:20;;;;;;;9.30;2.30;;;;;;;-145.18;100.00;47131.19;5001107;28;20417;-74
2022/06/10 11:22:01;;;;;;;7.60;2.30;;;;;;;-145.18;100.00;47226.91;5002743;28;20076;-73
2022/06/10 11:24:33;;;;;;;6.70;2.77;;;;;;;-145.18;100.00;47125.31;5003193;28;20029;-73
2022/06/10 11:27:02;;;;;;;6.20;2.60;;;;;;;-145.18;100.00;47068.66;5001547;28;20026;-73
2022/06/10 11:29:28;;;;;;;7.07;2.30;;;;;;;-145.18;100.00;47164.38;4997968;28;20118;-73
2022/06/10 11:31:59;;;;;;;8.33;2.63;;;;;;;-145.18;100.00;47207.38;4997939;28;20429;-73
2022/06/10 11:34:47;;;;;;;7.73;2.60;;;;;;;-145.18;100.00;46816.66;4998169;28;20398;-73
2022/06/10 11:37:37;;;;;;;7.10;2.83;;;;;;;-145.18;100.00;46957.31;4988994;28;20132;-73
2022/06/10 11:40:12;;;;;;;7.93;2.37;;;;;;;-145.18;100.00;46933.88;4989346;28;20556;-73